createdAt,value
2023-09-02T00:00:56.775Z,28.60
2023-09-02T00:01:58.295Z,38.80
2023-09-02T00:02:59.819Z,27.67
2023-09-02T00:04:03.931Z,30.63
2023-09-02T00:05:09.145Z,31.00
2023-09-02T00:06:10.742Z,29.80
2023-09-02T00:07:12.259Z,27.02
2023-09-02T00:08:13.711Z,28.77
2023-09-02T00:09:16.460Z,27.33
2023-09-02T00:10:18.210Z,28.60
2023-09-02T00:11:19.720Z,32.35
2023-09-02T00:12:21.176Z,33.28
2023-09-02T00:13:22.768Z,30.92
2023-09-02T00:14:24.217Z,31.58
2023-09-02T00:15:25.702Z,30.27
2023-09-02T00:16:27.265Z,26.38
2023-09-02T00:17:29.126Z,27.17
2023-09-02T00:18:30.572Z,29.58
2023-09-02T00:19:32.041Z,28.38
2023-09-02T00:20:33.544Z,32.33
2023-09-02T00:21:35.091Z,36.22
2023-09-02T00:22:36.587Z,32.78
2023-09-02T00:23:40.515Z,32.42
2023-09-02T00:24:41.951Z,31.10
2023-09-02T00:25:43.429Z,34.08
2023-09-02T00:26:44.878Z,31.35
2023-09-02T00:27:46.305Z,32.75
2023-09-02T00:28:47.815Z,38.35
2023-09-02T00:29:49.329Z,35.20
2023-09-02T00:30:50.814Z,32.38
2023-09-02T00:31:52.276Z,32.90
2023-09-02T00:32:53.749Z,36.80
2023-09-02T00:33:55.279Z,32.63
2023-09-02T00:34:56.727Z,31.65
2023-09-02T00:35:58.233Z,36.25
2023-09-02T00:36:59.818Z,33.63
2023-09-02T00:38:01.308Z,39.08
2023-09-02T00:39:03.056Z,33.00
2023-09-02T00:40:06.810Z,30.83
2023-09-02T00:41:13.741Z,32.88
2023-09-02T00:42:20.612Z,31.00
2023-09-02T00:43:22.094Z,35.25
2023-09-02T00:44:24.066Z,33.83
2023-09-02T00:46:27.409Z,31.83
2023-09-02T00:47:28.964Z,35.17
2023-09-02T00:48:30.487Z,33.65
2023-09-02T00:49:34.911Z,31.27
2023-09-02T00:50:36.557Z,30.35
2023-09-02T00:51:38.061Z,28.77
2023-09-02T00:52:39.522Z,34.50
2023-09-02T00:53:41.118Z,32.80
2023-09-02T00:54:42.631Z,34.33
2023-09-02T00:55:44.233Z,33.60
2023-09-02T00:56:45.729Z,30.95
2023-09-02T00:57:47.537Z,32.45
2023-09-02T00:58:49.056Z,31.23
2023-09-02T00:59:51.052Z,31.77
2023-09-02T01:01:56.912Z,32.08
2023-09-02T01:02:59.752Z,33.60
2023-09-02T01:04:04.755Z,32.95
2023-09-02T01:05:07.292Z,31.10
2023-09-02T01:06:09.912Z,34.15
2023-09-02T01:07:11.829Z,33.78
2023-09-02T01:08:14.561Z,34.97
2023-09-02T01:09:16.065Z,34.95
2023-09-02T01:10:18.516Z,29.33
2023-09-02T01:11:19.979Z,33.15
2023-09-02T01:12:21.447Z,31.25
2023-09-02T01:13:23.005Z,30.35
2023-09-02T01:14:24.510Z,28.70
2023-09-02T01:15:25.928Z,34.95
2023-09-02T01:16:27.472Z,34.67
2023-09-02T01:17:29.054Z,28.25
2023-09-02T01:18:31.144Z,30.63
2023-09-02T01:19:33.610Z,32.10
2023-09-02T01:21:15.489Z,32.45
2023-09-02T01:22:38.955Z,31.75
2023-09-02T01:24:02.387Z,30.80
2023-09-02T01:25:47.583Z,30.15
2023-09-02T01:27:19.911Z,29.00
2023-09-02T01:28:29.516Z,29.45
2023-09-02T01:29:37.472Z,29.80
2023-09-02T01:30:41.420Z,32.03
2023-09-02T01:31:42.964Z,30.05
2023-09-02T01:32:47.193Z,32.35
2023-09-02T01:33:50.233Z,31.23
2023-09-02T01:34:52.522Z,29.38
2023-09-02T01:35:56.193Z,29.08
2023-09-02T01:37:00.415Z,31.77
2023-09-02T01:38:04.641Z,27.83
2023-09-02T01:39:08.677Z,27.65
2023-09-02T01:40:15.590Z,28.92
2023-09-02T01:41:17.099Z,30.40
2023-09-02T01:42:19.220Z,31.80
2023-09-02T01:43:22.247Z,29.52
2023-09-02T01:44:24.723Z,31.08
2023-09-02T01:45:30.730Z,31.67
2023-09-02T01:46:32.247Z,29.17
2023-09-02T01:47:33.809Z,31.35
2023-09-02T01:48:36.090Z,34.33
2023-09-02T01:49:38.760Z,35.60
2023-09-02T01:50:42.754Z,33.53
2023-09-02T01:51:45.424Z,34.38
2023-09-02T01:52:48.481Z,33.88
2023-09-02T01:53:50.008Z,31.35
2023-09-02T01:54:51.734Z,32.28
2023-09-02T01:55:53.910Z,33.08
2023-09-02T01:56:56.237Z,34.20
2023-09-02T01:57:59.117Z,31.05
2023-09-02T01:59:00.766Z,25.75
2023-09-02T02:00:02.225Z,30.85
2023-09-02T02:01:03.860Z,29.55
2023-09-02T02:02:05.464Z,33.42
2023-09-02T02:03:16.109Z,30.70
2023-09-02T02:04:26.822Z,31.52
2023-09-02T02:05:40.486Z,28.52
2023-09-02T02:06:44.488Z,31.83
2023-09-02T02:07:49.841Z,33.38
2023-09-02T02:08:58.420Z,34.75
2023-09-02T02:10:02.573Z,32.80
2023-09-02T02:11:06.562Z,36.70
2023-09-02T02:12:09.328Z,34.25
2023-09-02T02:13:10.810Z,28.63
2023-09-02T02:14:12.290Z,28.58
2023-09-02T02:15:13.735Z,35.17
2023-09-02T02:16:15.701Z,30.45
2023-09-02T02:18:18.636Z,34.58
2023-09-02T02:19:20.178Z,33.42
2023-09-02T02:20:22.380Z,32.60
2023-09-02T02:21:24.565Z,33.25
2023-09-02T02:22:26.049Z,34.08
2023-09-02T02:23:27.487Z,31.98
2023-09-02T02:24:29.028Z,32.55
2023-09-02T02:25:30.491Z,32.13
2023-09-02T02:26:31.965Z,29.88
2023-09-02T02:27:33.431Z,30.95
2023-09-02T02:28:35.087Z,33.42
2023-09-02T02:29:36.559Z,28.55
2023-09-02T02:30:38.138Z,34.38
2023-09-02T02:31:39.636Z,33.97
2023-09-02T02:32:41.444Z,30.00
2023-09-02T02:33:42.951Z,30.40
2023-09-02T02:34:45.368Z,32.85
2023-09-02T02:35:47.020Z,32.58
2023-09-02T02:36:48.474Z,29.55
2023-09-02T02:37:53.130Z,32.40
2023-09-02T02:38:54.586Z,31.27
2023-09-02T02:39:56.089Z,34.50
2023-09-02T02:40:57.615Z,35.13
2023-09-02T02:41:59.071Z,34.25
2023-09-02T02:43:00.551Z,32.20
2023-09-02T02:44:02.327Z,31.52
2023-09-02T02:45:03.998Z,34.28
2023-09-02T02:46:05.617Z,32.33
2023-09-02T02:47:07.254Z,32.42
2023-09-02T02:48:16.124Z,34.13
2023-09-02T02:49:17.626Z,34.88
2023-09-02T02:50:19.069Z,35.65
2023-09-02T02:51:20.593Z,31.25
2023-09-02T02:52:22.526Z,34.75
2023-09-02T02:54:25.983Z,32.97
2023-09-02T02:55:27.404Z,32.28
2023-09-02T02:56:28.875Z,32.85
2023-09-02T02:57:30.373Z,29.20
2023-09-02T02:58:33.839Z,36.90
2023-09-02T02:59:35.393Z,31.73
2023-09-02T03:00:36.821Z,31.63
2023-09-02T03:01:38.279Z,33.42
2023-09-02T03:02:39.880Z,37.13
2023-09-02T03:03:42.192Z,31.67
2023-09-02T03:04:49.074Z,35.15
2023-09-02T03:05:50.525Z,33.15
2023-09-02T03:06:52.042Z,31.70
2023-09-02T03:07:53.537Z,32.90
2023-09-02T03:08:55.006Z,35.75
2023-09-02T03:09:56.476Z,37.08
2023-09-02T03:11:03.114Z,35.42
2023-09-02T03:12:04.935Z,32.13
2023-09-02T03:13:06.723Z,32.75
2023-09-02T03:14:08.336Z,32.10
2023-09-02T03:15:09.918Z,30.05
2023-09-02T03:16:11.463Z,38.45
2023-09-02T03:17:13.004Z,30.20
2023-09-02T03:18:14.427Z,33.83
2023-09-02T03:19:15.869Z,33.38
2023-09-02T03:20:17.374Z,33.50
2023-09-02T03:21:18.936Z,36.35
2023-09-02T03:22:20.430Z,35.72
2023-09-02T03:23:23.141Z,34.30
2023-09-02T03:24:24.615Z,30.80
2023-09-02T03:25:28.401Z,27.90
2023-09-02T03:26:29.872Z,31.55
2023-09-02T03:27:31.358Z,29.30
2023-09-02T03:28:32.784Z,29.08
2023-09-02T03:29:34.456Z,30.00
2023-09-02T03:30:35.938Z,29.83
2023-09-02T03:31:37.600Z,27.65
2023-09-02T03:32:39.134Z,30.40
2023-09-02T03:33:40.734Z,29.80
2023-09-02T03:34:42.167Z,29.55
2023-09-02T03:35:43.747Z,31.00
2023-09-02T03:36:45.169Z,30.52
2023-09-02T03:37:46.767Z,29.50
2023-09-02T03:38:48.380Z,30.48
2023-09-02T03:39:49.953Z,33.05
2023-09-02T03:40:51.394Z,28.98
2023-09-02T03:41:52.817Z,33.20
2023-09-02T03:42:54.359Z,31.15
2023-09-02T03:43:57.027Z,33.38
2023-09-02T03:44:59.236Z,34.95
2023-09-02T03:46:00.709Z,36.03
2023-09-02T03:47:02.321Z,34.42
2023-09-02T03:48:04.319Z,35.67
2023-09-02T03:49:07.001Z,37.78
2023-09-02T03:50:08.677Z,29.95
2023-09-02T03:51:17.030Z,30.58
2023-09-02T03:52:18.491Z,28.83
2023-09-02T03:53:19.914Z,29.90
2023-09-02T03:54:21.811Z,30.98
2023-09-02T03:55:23.280Z,33.67
2023-09-02T03:56:24.797Z,28.55
2023-09-02T03:57:26.335Z,31.23
2023-09-02T03:58:29.502Z,31.10
2023-09-02T03:59:30.945Z,31.45
2023-09-02T04:00:32.392Z,34.72
2023-09-02T04:01:33.908Z,32.10
2023-09-02T04:02:35.395Z,37.67
2023-09-02T04:03:37.011Z,31.17
2023-09-02T04:04:38.605Z,33.30
2023-09-02T04:05:40.040Z,34.38
2023-09-02T04:06:41.502Z,40.85
2023-09-02T04:07:42.964Z,40.65
2023-09-02T04:08:44.398Z,37.78
2023-09-02T04:09:45.866Z,32.25
2023-09-02T04:10:55.167Z,34.83
2023-09-02T04:11:58.949Z,31.55
2023-09-02T04:13:00.410Z,36.30
2023-09-02T04:14:02.806Z,35.15
2023-09-02T04:15:04.891Z,33.85
2023-09-02T04:16:09.444Z,33.13
2023-09-02T04:17:13.509Z,34.58
2023-09-02T04:18:14.946Z,32.53
2023-09-02T04:19:18.780Z,29.58
2023-09-02T04:20:20.264Z,29.80
2023-09-02T04:21:21.745Z,32.90
2023-09-02T04:22:23.296Z,31.33
2023-09-02T04:23:24.725Z,32.25
2023-09-02T04:24:28.329Z,36.22
2023-09-02T04:25:29.813Z,31.33
2023-09-02T04:26:31.285Z,32.50
2023-09-02T04:27:32.713Z,30.88
2023-09-02T04:28:34.157Z,32.28
2023-09-02T04:29:35.587Z,32.58
2023-09-02T04:30:37.019Z,32.80
2023-09-02T04:31:38.443Z,33.65
2023-09-02T04:32:40.077Z,30.33
2023-09-02T04:33:41.642Z,32.20
2023-09-02T04:34:43.114Z,36.50
2023-09-02T04:35:46.278Z,34.88
2023-09-02T04:36:47.716Z,36.05
2023-09-02T04:37:49.199Z,33.78
2023-09-02T04:38:53.588Z,32.03
2023-09-02T04:39:55.056Z,29.92
2023-09-02T04:40:56.499Z,30.33
2023-09-02T04:41:57.948Z,30.63
2023-09-02T04:42:59.575Z,32.28
2023-09-02T04:44:01.052Z,31.50
2023-09-02T04:45:02.495Z,30.75
2023-09-02T04:46:04.899Z,31.20
2023-09-02T04:47:07.710Z,35.45
2023-09-02T04:48:10.543Z,29.60
2023-09-02T04:49:11.981Z,32.22
2023-09-02T04:50:13.463Z,32.42
2023-09-02T04:51:14.925Z,30.25
2023-09-02T04:52:16.456Z,31.15
2023-09-02T04:53:19.704Z,34.85
2023-09-02T04:54:21.497Z,31.30
2023-09-02T04:55:22.911Z,31.00
2023-09-02T04:56:24.692Z,34.85
2023-09-02T04:57:26.127Z,32.88
2023-09-02T04:58:28.712Z,33.25
2023-09-02T04:59:30.219Z,31.38
2023-09-02T05:00:31.875Z,34.92
2023-09-02T05:01:33.431Z,29.52
2023-09-02T05:02:34.956Z,32.30
2023-09-02T05:03:36.434Z,34.70
2023-09-02T05:04:37.883Z,34.05
2023-09-02T05:05:39.454Z,32.33
2023-09-02T05:06:40.929Z,37.38
2023-09-02T05:07:42.602Z,38.42
2023-09-02T05:08:44.066Z,41.45
2023-09-02T05:09:45.502Z,31.40
2023-09-02T05:10:46.970Z,34.78
2023-09-02T05:11:48.413Z,32.92
2023-09-02T05:12:49.859Z,34.45
2023-09-02T05:13:51.381Z,32.58
2023-09-02T05:14:52.825Z,34.80
2023-09-02T05:15:54.312Z,35.30
2023-09-02T05:16:55.782Z,38.03
2023-09-02T05:17:58.970Z,37.65
2023-09-02T05:19:00.588Z,39.45
2023-09-02T05:20:06.780Z,39.58
2023-09-02T05:21:08.254Z,36.67
2023-09-02T05:22:10.628Z,40.25
2023-09-02T05:23:13.412Z,36.40
2023-09-02T05:24:14.868Z,36.10
2023-09-02T05:25:16.387Z,37.28
2023-09-02T05:26:17.886Z,40.22
2023-09-02T05:27:20.926Z,37.53
2023-09-02T05:28:23.713Z,42.72
2023-09-02T05:29:25.166Z,40.95
2023-09-02T05:30:26.722Z,55.47
2023-09-02T05:31:28.209Z,52.95
2023-09-02T05:32:29.698Z,48.28
2023-09-02T05:33:31.349Z,47.22
2023-09-02T05:34:34.135Z,50.25
2023-09-02T05:35:36.826Z,51.55
2023-09-02T05:36:38.366Z,54.65
2023-09-02T05:37:39.823Z,51.45
2023-09-02T05:38:41.291Z,52.92
2023-09-02T05:39:42.841Z,51.40
2023-09-02T05:40:44.470Z,57.08
2023-09-02T05:41:46.415Z,44.78
2023-09-02T05:43:49.294Z,51.75
2023-09-02T05:44:50.762Z,56.15
2023-09-02T05:45:52.281Z,48.20
2023-09-02T05:46:53.753Z,45.65
2023-09-02T05:47:55.200Z,41.10
2023-09-02T05:48:56.993Z,37.70
2023-09-02T05:49:58.412Z,38.33
2023-09-02T05:50:59.843Z,39.90
2023-09-02T05:52:01.269Z,37.30
2023-09-02T05:53:02.842Z,33.05
2023-09-02T05:54:04.535Z,31.55
2023-09-02T05:55:06.718Z,33.88
2023-09-02T05:56:08.204Z,25.15
2023-09-02T05:57:09.794Z,31.65
2023-09-02T05:58:11.265Z,35.15
2023-09-02T05:59:13.933Z,35.25
2023-09-02T06:00:15.568Z,25.38
2023-09-02T06:01:17.102Z,26.90
2023-09-02T06:02:18.557Z,24.75
2023-09-02T06:03:20.343Z,28.02
2023-09-02T06:04:22.002Z,25.08
2023-09-02T06:05:23.500Z,24.90
2023-09-02T06:06:25.483Z,20.77
2023-09-02T06:07:27.020Z,28.88
2023-09-02T06:08:29.295Z,23.45
2023-09-02T06:09:31.354Z,21.85
2023-09-02T06:10:32.819Z,24.45
2023-09-02T06:11:34.273Z,29.27
2023-09-02T06:12:35.747Z,24.80
2023-09-02T06:13:37.212Z,24.20
2023-09-02T06:14:38.696Z,21.50
2023-09-02T06:15:40.181Z,19.67
2023-09-02T06:16:41.693Z,21.27
2023-09-02T06:17:43.213Z,20.42
2023-09-02T06:18:44.653Z,21.27
2023-09-02T06:19:46.087Z,22.08
2023-09-02T06:20:47.570Z,20.20
2023-09-02T06:21:49.016Z,20.17
2023-09-02T06:22:50.425Z,19.73
2023-09-02T06:23:51.920Z,20.27
2023-09-02T06:24:55.457Z,19.73
2023-09-02T06:26:01.284Z,21.67
2023-09-02T06:27:04.887Z,19.45
2023-09-02T06:28:06.536Z,17.92
2023-09-02T06:29:08.135Z,18.45
2023-09-02T06:30:09.997Z,20.40
2023-09-02T06:32:13.390Z,17.98
2023-09-02T06:33:16.468Z,20.70
2023-09-02T06:34:23.547Z,23.35
2023-09-02T06:35:24.986Z,17.17
2023-09-02T06:36:26.478Z,19.30
2023-09-02T06:37:30.092Z,17.75
2023-09-02T06:38:32.342Z,17.45
2023-09-02T06:39:33.809Z,19.48
2023-09-02T06:40:35.239Z,18.90
2023-09-02T06:41:36.707Z,23.52
2023-09-02T06:42:38.210Z,17.08
2023-09-02T06:43:40.224Z,18.55
2023-09-02T06:44:41.665Z,22.48
2023-09-02T06:45:43.142Z,16.60
2023-09-02T06:46:44.882Z,17.35
2023-09-02T06:47:46.431Z,18.63
2023-09-02T06:48:48.776Z,18.05
2023-09-02T06:49:50.542Z,20.48
2023-09-02T06:50:52.000Z,16.58
2023-09-02T06:51:53.463Z,14.65
2023-09-02T06:52:55.041Z,15.18
2023-09-02T06:53:56.523Z,15.00
2023-09-02T06:54:57.956Z,17.02
2023-09-02T06:55:59.423Z,13.43
2023-09-02T06:57:00.895Z,15.77
2023-09-02T06:58:02.730Z,16.75
2023-09-02T06:59:04.302Z,14.50
2023-09-02T07:00:06.534Z,16.70
2023-09-02T07:01:08.116Z,14.27
2023-09-02T07:02:09.642Z,18.17
2023-09-02T07:03:12.512Z,15.13
2023-09-02T07:04:14.564Z,15.50
2023-09-02T07:05:16.120Z,16.15
2023-09-02T07:06:17.789Z,14.57
2023-09-02T07:07:19.276Z,14.73
2023-09-02T07:08:20.805Z,14.25
2023-09-02T07:09:22.277Z,14.70
2023-09-02T07:10:23.725Z,15.35
2023-09-02T07:11:25.556Z,14.52
2023-09-02T07:12:27.938Z,18.20
2023-09-02T07:13:29.482Z,14.73
2023-09-02T07:14:30.957Z,13.13
2023-09-02T07:15:32.423Z,12.82
2023-09-02T07:16:33.888Z,15.13
2023-09-02T07:17:35.366Z,13.77
2023-09-02T07:18:36.835Z,13.75
2023-09-02T07:19:38.399Z,13.98
2023-09-02T07:20:39.863Z,13.25
2023-09-02T07:21:41.310Z,14.40
2023-09-02T07:22:42.799Z,16.38
2023-09-02T07:23:44.246Z,13.38
2023-09-02T07:24:45.741Z,14.85
2023-09-02T07:25:47.273Z,17.70
2023-09-02T07:26:48.700Z,15.27
2023-09-02T07:27:50.166Z,17.83
2023-09-02T07:28:51.646Z,14.70
2023-09-02T07:29:53.147Z,14.15
2023-09-02T07:30:57.256Z,13.75
2023-09-02T07:31:58.744Z,14.57
2023-09-02T07:33:00.369Z,14.32
2023-09-02T07:34:01.865Z,14.30
2023-09-02T07:35:03.425Z,14.90
2023-09-02T07:36:12.453Z,17.05
2023-09-02T07:37:13.932Z,14.88
2023-09-02T07:38:15.484Z,16.38
2023-09-02T07:39:17.834Z,13.23
2023-09-02T07:40:19.406Z,17.70
2023-09-02T07:41:20.884Z,14.00
2023-09-02T07:42:22.364Z,14.40
2023-09-02T07:43:23.828Z,14.55
2023-09-02T07:44:25.286Z,15.40
2023-09-02T07:45:26.794Z,15.25
2023-09-02T07:46:28.271Z,17.50
2023-09-02T07:47:30.234Z,14.10
2023-09-02T07:48:31.892Z,15.23
2023-09-02T07:49:33.354Z,15.07
2023-09-02T07:50:34.793Z,18.33
2023-09-02T07:51:36.258Z,14.48
2023-09-02T07:52:37.713Z,14.80
2023-09-02T07:53:39.165Z,11.90
2023-09-02T07:54:40.773Z,15.52
2023-09-02T07:55:42.373Z,14.52
2023-09-02T07:56:43.942Z,14.13
2023-09-02T07:57:45.429Z,13.63
2023-09-02T07:58:49.536Z,15.15
2023-09-02T07:59:51.098Z,13.25
2023-09-02T08:00:56.909Z,15.95
2023-09-02T08:01:58.510Z,14.30
2023-09-02T08:03:00.234Z,12.13
2023-09-02T08:04:04.758Z,12.13
2023-09-02T08:05:07.833Z,11.48
2023-09-02T08:06:09.981Z,12.40
2023-09-02T08:07:11.437Z,11.85
2023-09-02T08:08:12.962Z,13.88
2023-09-02T08:09:14.963Z,13.13
2023-09-02T08:10:16.623Z,11.25
2023-09-02T08:11:19.055Z,13.30
2023-09-02T08:12:20.668Z,12.40
2023-09-02T08:13:22.088Z,12.15
2023-09-02T08:14:23.543Z,12.05
2023-09-02T08:15:25.697Z,9.23
2023-09-02T08:16:27.245Z,9.63
2023-09-02T08:17:28.712Z,8.27
2023-09-02T08:18:30.305Z,8.68
2023-09-02T08:19:32.821Z,8.98
2023-09-02T08:20:36.638Z,9.20
2023-09-02T08:21:38.108Z,7.95
2023-09-02T08:22:40.701Z,9.25
2023-09-02T08:23:42.433Z,8.52
2023-09-02T08:24:43.871Z,11.43
2023-09-02T08:25:45.574Z,12.18
2023-09-02T08:26:47.022Z,10.57
2023-09-02T08:27:48.787Z,6.50
2023-09-02T08:28:50.228Z,11.38
2023-09-02T08:29:52.839Z,9.65
2023-09-02T08:30:54.367Z,8.30
2023-09-02T08:31:56.802Z,8.65
2023-09-02T08:32:58.429Z,10.45
2023-09-02T08:33:59.907Z,8.35
2023-09-02T08:35:01.351Z,8.68
2023-09-02T08:36:02.831Z,7.68
2023-09-02T08:37:04.624Z,8.77
2023-09-02T08:38:06.157Z,10.57
2023-09-02T08:39:07.675Z,7.32
2023-09-02T08:40:09.721Z,7.70
2023-09-02T08:41:25.578Z,7.90
2023-09-02T08:42:27.801Z,8.77
2023-09-02T08:43:30.090Z,9.00
2023-09-02T08:44:36.126Z,7.65
2023-09-02T08:45:42.304Z,10.07
2023-09-02T08:46:46.600Z,8.48
2023-09-02T08:47:52.259Z,7.22
2023-09-02T08:48:56.531Z,12.25
2023-09-02T08:49:59.138Z,8.45
2023-09-02T08:51:01.396Z,7.85
2023-09-02T08:52:03.014Z,9.02
2023-09-02T08:53:04.899Z,7.93
2023-09-02T08:55:11.922Z,8.85
2023-09-02T08:56:14.124Z,7.47
2023-09-02T08:57:17.545Z,11.10
2023-09-02T08:58:20.486Z,7.60
2023-09-02T08:59:22.011Z,8.13
2023-09-02T09:00:24.569Z,7.35
2023-09-02T09:01:26.155Z,7.60
2023-09-02T09:02:28.805Z,7.65
2023-09-02T09:03:32.322Z,9.68
2023-09-02T09:04:37.441Z,7.47
2023-09-02T09:05:41.386Z,6.93
2023-09-02T09:06:43.554Z,8.00
2023-09-02T09:07:46.396Z,5.72
2023-09-02T09:08:48.970Z,11.02
2023-09-02T09:09:53.521Z,8.63
2023-09-02T09:10:57.165Z,6.90
2023-09-02T09:12:02.616Z,9.27
2023-09-02T09:13:12.219Z,8.20
2023-09-02T09:14:19.102Z,8.27
2023-09-02T09:15:23.796Z,7.53
2023-09-02T09:16:26.946Z,7.75
2023-09-02T09:17:29.809Z,7.63
2023-09-02T09:18:31.422Z,7.03
2023-09-02T09:19:34.832Z,13.45
2023-09-02T09:20:36.957Z,8.15
2023-09-02T09:21:38.432Z,5.85
2023-09-02T09:22:40.516Z,9.82
2023-09-02T09:23:42.012Z,9.73
2023-09-02T09:24:43.538Z,7.20
2023-09-02T09:25:50.337Z,8.18
2023-09-02T09:26:52.258Z,6.35
2023-09-02T09:27:53.876Z,7.30
2023-09-02T09:28:59.795Z,11.50
2023-09-02T09:30:01.602Z,9.20
2023-09-02T09:32:19.429Z,8.52
2023-09-02T09:33:21.297Z,7.18
2023-09-02T09:34:36.521Z,8.25
2023-09-02T09:35:38.262Z,8.00
2023-09-02T09:36:41.336Z,9.43
2023-09-02T09:37:54.175Z,8.60
2023-09-02T09:38:58.273Z,6.43
2023-09-02T09:39:59.738Z,10.52
2023-09-02T09:41:01.286Z,9.95
2023-09-02T09:42:02.787Z,9.02
2023-09-02T09:43:17.528Z,6.63
2023-09-02T09:44:19.203Z,6.72
2023-09-02T09:45:20.835Z,8.52
2023-09-02T09:46:22.465Z,6.38
2023-09-02T09:47:26.150Z,8.88
2023-09-02T09:48:27.695Z,6.68
2023-09-02T09:49:31.330Z,8.38
2023-09-02T09:50:32.775Z,15.50
2023-09-02T09:51:34.233Z,7.88
2023-09-02T09:52:35.686Z,7.93
2023-09-02T09:53:47.222Z,7.80
2023-09-02T09:54:53.637Z,9.23
2023-09-02T09:55:55.416Z,7.18
2023-09-02T09:56:58.006Z,8.93
2023-09-02T09:58:00.171Z,6.97
2023-09-02T09:59:09.665Z,10.30
2023-09-02T10:00:15.963Z,6.45
2023-09-02T10:01:22.913Z,10.75
2023-09-02T10:02:25.000Z,6.18
2023-09-02T10:03:31.770Z,7.57
2023-09-02T10:04:33.972Z,9.73
2023-09-02T10:05:36.465Z,8.35
2023-09-02T10:06:39.491Z,5.97
2023-09-02T10:07:40.974Z,7.40
2023-09-02T10:08:53.491Z,8.73
2023-09-02T10:09:56.508Z,8.27
2023-09-02T10:10:58.007Z,7.95
2023-09-02T10:12:11.463Z,13.52
2023-09-02T10:13:12.925Z,7.35
2023-09-02T10:14:15.444Z,9.63
2023-09-02T10:15:16.964Z,8.63
2023-09-02T10:16:18.943Z,8.77
2023-09-02T10:17:20.901Z,10.65
2023-09-02T10:18:24.455Z,7.55
2023-09-02T10:19:25.934Z,9.15
2023-09-02T10:20:30.017Z,9.80
2023-09-02T10:21:34.607Z,8.82
2023-09-02T10:22:40.510Z,6.85
2023-09-02T10:24:05.308Z,7.18
2023-09-02T10:25:25.137Z,9.25
2023-09-02T10:26:38.185Z,7.65
2023-09-02T10:27:43.824Z,7.45
2023-09-02T10:28:47.958Z,7.78
2023-09-02T10:29:56.024Z,9.50
2023-09-02T10:31:00.822Z,6.50
2023-09-02T10:32:10.620Z,7.97
2023-09-02T10:33:46.816Z,9.32
2023-09-02T10:35:07.502Z,6.50
2023-09-02T10:36:09.640Z,7.60
2023-09-02T10:37:15.180Z,8.55
2023-09-02T10:38:20.991Z,8.45
2023-09-02T10:39:35.553Z,10.70
2023-09-02T10:40:40.350Z,8.77
2023-09-02T10:41:42.686Z,9.63
2023-09-02T10:42:45.321Z,12.60
2023-09-02T10:43:47.665Z,8.50
2023-09-02T10:44:49.276Z,6.88
2023-09-02T10:45:51.445Z,6.82
2023-09-02T10:46:56.295Z,8.63
2023-09-02T10:48:00.469Z,6.60
2023-09-02T10:49:02.488Z,8.23
2023-09-02T10:50:05.383Z,7.70
2023-09-02T10:51:08.660Z,7.22
2023-09-02T10:52:13.796Z,7.68
2023-09-02T10:53:16.295Z,8.10
2023-09-02T10:54:17.769Z,6.68
2023-09-02T10:55:19.309Z,7.40
2023-09-02T10:56:34.010Z,8.32
2023-09-02T10:57:50.093Z,7.50
2023-09-02T10:58:51.538Z,6.32
2023-09-02T11:00:41.498Z,6.97
2023-09-02T11:01:49.892Z,8.10
2023-09-02T11:02:54.173Z,8.48
2023-09-02T11:03:56.338Z,8.43
2023-09-02T11:04:58.599Z,8.45
2023-09-02T11:06:07.361Z,7.97
2023-09-02T11:07:21.143Z,7.00
2023-09-02T11:08:51.305Z,6.65
2023-09-02T11:09:55.090Z,8.13
2023-09-02T11:10:56.943Z,6.82
2023-09-02T11:12:11.562Z,8.07
2023-09-02T11:13:13.045Z,8.55
2023-09-02T11:14:17.630Z,7.65
2023-09-02T11:15:19.758Z,11.15
2023-09-02T11:16:21.414Z,5.10
2023-09-02T11:17:30.798Z,8.48
2023-09-02T11:18:35.793Z,8.63
2023-09-02T11:20:08.433Z,6.07
2023-09-02T11:21:09.918Z,7.20
2023-09-02T11:22:50.379Z,7.82
2023-09-02T11:23:51.942Z,6.85
2023-09-02T11:24:53.533Z,8.38
2023-09-02T11:26:03.068Z,8.93
2023-09-02T11:27:04.841Z,6.20
2023-09-02T11:28:27.455Z,7.28
2023-09-02T11:29:30.533Z,5.57
2023-09-02T11:30:34.277Z,7.18
2023-09-02T11:32:05.665Z,7.53
2023-09-02T11:34:09.409Z,7.13
2023-09-02T11:35:12.693Z,6.82
2023-09-02T11:36:19.002Z,5.25
2023-09-02T11:37:31.478Z,7.60
2023-09-02T11:38:35.077Z,7.03
2023-09-02T11:39:36.995Z,7.32
2023-09-02T11:40:38.541Z,6.00
2023-09-02T11:41:39.980Z,6.55
2023-09-02T11:43:02.381Z,7.13
2023-09-02T11:44:11.967Z,5.80
2023-09-02T11:45:15.162Z,9.02
2023-09-02T11:46:16.683Z,4.82
2023-09-02T11:47:18.415Z,6.63
2023-09-02T11:48:19.998Z,6.75
2023-09-02T11:49:28.076Z,6.60
2023-09-02T11:50:29.786Z,5.30
2023-09-02T11:51:31.288Z,6.93
2023-09-02T11:52:33.462Z,6.85
2023-09-02T11:53:34.969Z,7.85
2023-09-02T11:54:40.674Z,6.05
2023-09-02T11:55:42.191Z,5.93
2023-09-02T11:56:56.534Z,5.65
2023-09-02T11:57:58.056Z,6.00
2023-09-02T11:58:59.493Z,5.93
2023-09-02T12:00:01.013Z,6.75
2023-09-02T12:01:02.499Z,6.13
2023-09-02T12:02:17.722Z,5.05
2023-09-02T12:03:28.707Z,5.97
2023-09-02T12:04:41.332Z,6.75
2023-09-02T12:05:54.169Z,4.72
2023-09-02T12:06:55.852Z,6.05
2023-09-02T12:07:57.978Z,6.32
2023-09-02T12:09:00.785Z,5.55
2023-09-02T12:10:11.255Z,5.43
2023-09-02T12:11:13.726Z,6.55
2023-09-02T12:12:18.297Z,5.32
2023-09-02T12:13:20.178Z,5.55
2023-09-02T12:14:21.921Z,5.47
2023-09-02T12:15:23.603Z,3.67
2023-09-02T12:17:29.065Z,5.65
2023-09-02T12:18:30.782Z,4.97
2023-09-02T12:20:34.636Z,5.47
2023-09-02T12:22:39.701Z,4.78
2023-09-02T12:23:41.345Z,6.10
2023-09-02T12:24:42.830Z,5.55
2023-09-02T12:26:03.343Z,4.32
2023-09-02T12:27:05.882Z,6.32
2023-09-02T12:28:15.892Z,5.63
2023-09-02T12:29:19.761Z,7.10
2023-09-02T12:30:29.511Z,6.25
2023-09-02T12:31:31.007Z,4.75
2023-09-02T12:32:32.529Z,7.38
2023-09-02T12:33:37.455Z,6.47
2023-09-02T12:34:41.390Z,8.45
2023-09-02T12:35:52.002Z,4.93
2023-09-02T12:36:53.435Z,5.10
2023-09-02T12:38:05.927Z,12.15
2023-09-02T12:39:07.369Z,11.88
2023-09-02T12:40:11.109Z,7.93
2023-09-02T12:41:12.682Z,5.35
2023-09-02T12:42:25.832Z,7.60
2023-09-02T12:43:28.645Z,6.60
2023-09-02T12:44:30.182Z,8.23
2023-09-02T12:45:33.412Z,5.68
2023-09-02T12:46:35.484Z,6.80
2023-09-02T12:47:38.678Z,13.15
2023-09-02T12:48:40.166Z,7.97
2023-09-02T12:49:44.915Z,5.35
2023-09-02T12:50:46.440Z,4.90
2023-09-02T12:51:47.879Z,6.95
2023-09-02T12:52:56.095Z,8.32
2023-09-02T12:53:57.857Z,5.93
2023-09-02T12:56:02.556Z,7.05
2023-09-02T12:57:04.207Z,8.48
2023-09-02T12:58:05.642Z,7.00
2023-09-02T12:59:07.373Z,7.95
2023-09-02T13:00:09.380Z,7.72
2023-09-02T13:01:10.824Z,7.75
2023-09-02T13:02:12.366Z,8.32
2023-09-02T13:03:13.940Z,7.88
2023-09-02T13:04:15.463Z,6.88
2023-09-02T13:05:17.164Z,8.45
2023-09-02T13:06:18.708Z,8.10
2023-09-02T13:07:20.965Z,7.05
2023-09-02T13:08:22.435Z,6.90
2023-09-02T13:09:24.085Z,8.05
2023-09-02T13:10:25.599Z,7.55
2023-09-02T13:11:27.983Z,6.90
2023-09-02T13:12:29.697Z,7.78
2023-09-02T13:13:31.677Z,5.45
2023-09-02T13:14:33.202Z,7.88
2023-09-02T13:15:34.768Z,9.05
2023-09-02T13:16:36.286Z,8.63
2023-09-02T13:17:37.911Z,15.65
2023-09-02T13:18:39.512Z,7.88
2023-09-02T13:19:40.959Z,6.60
2023-09-02T13:20:42.377Z,6.28
2023-09-02T13:21:43.808Z,6.38
2023-09-02T13:22:47.300Z,8.70
2023-09-02T13:23:50.139Z,6.80
2023-09-02T13:24:52.546Z,9.48
2023-09-02T13:25:54.028Z,7.80
2023-09-02T13:26:56.907Z,7.05
2023-09-02T13:28:00.920Z,14.70
2023-09-02T13:29:04.800Z,6.82
2023-09-02T13:30:06.885Z,13.05
2023-09-02T13:31:08.542Z,7.13
2023-09-02T13:32:15.782Z,9.23
2023-09-02T13:33:17.634Z,6.35
2023-09-02T13:34:34.179Z,6.72
2023-09-02T13:35:35.910Z,5.88
2023-09-02T13:36:37.370Z,6.60
2023-09-02T13:37:42.536Z,6.60
2023-09-02T13:38:43.989Z,11.73
2023-09-02T13:39:46.941Z,5.75
2023-09-02T13:40:48.485Z,7.20
2023-09-02T13:41:49.954Z,6.63
2023-09-02T13:42:51.394Z,10.38
2023-09-02T13:43:52.852Z,8.57
2023-09-02T13:45:09.469Z,9.60
2023-09-02T13:46:11.511Z,5.38
2023-09-02T13:47:15.562Z,10.15
2023-09-02T13:48:17.090Z,10.27
2023-09-02T13:49:18.561Z,7.03
2023-09-02T13:50:20.250Z,9.25
2023-09-02T13:51:23.529Z,5.57
2023-09-02T13:52:25.542Z,8.65
2023-09-02T13:54:29.523Z,7.32
2023-09-02T13:55:43.686Z,9.30
2023-09-02T13:56:45.172Z,8.02
2023-09-02T13:57:46.810Z,9.43
2023-09-02T13:58:51.765Z,6.15
2023-09-02T13:59:55.476Z,7.82
2023-09-02T14:00:57.015Z,6.50